Time;durP1;ratioP1;P1;durP2;ratioP2;P2;SDS_P1;SDS_P2;PMS_P1;PMS_P2;Temp;Humidity;BMP_temperature;BMP_pressure;BME280_temperature;BME280_humidity;BME280_pressure;Samples;Min_cycle;Max_cycle;Signal;HPM_P1;HPM_P2
2021/10/04 00:01:59;;;;;;;0.40;0.30;;;17.60;61.20;;;;;;5048876;28;20029;-65
2021/10/04 00:04:25;;;;;;;0.30;0.30;;;17.60;61.30;;;;;;5049981;28;20036;-66
2021/10/04 00:06:51;;;;;;;0.40;0.30;;;17.70;61.50;;;;;;5049070;28;20032;-65
2021/10/04 00:09:17;;;;;;;1.58;0.40;;;17.70;61.50;;;;;;5067461;28;20466;-66
2021/10/04 00:11:43;;;;;;;1.13;0.30;;;17.70;61.40;;;;;;5050109;28;20131;-65
2021/10/04 00:14:08;;;;;;;0.40;0.38;;;17.70;62.40;;;;;;5050212;28;20029;-65
2021/10/04 00:16:36;;;;;;;0.65;0.40;;;17.70;61.60;;;;;;5051257;28;20052;-65
2021/10/04 00:19:02;;;;;;;0.32;0.32;;;17.60;61.60;;;;;;5047966;28;20048;-65
2021/10/04 00:21:27;;;;;;;0.68;0.50;;;17.60;61.70;;;;;;5055386;28;20033;-66
2021/10/04 00:23:53;;;;;;;0.20;0.20;;;17.60;61.90;;;;;;5048144;28;20043;-65
2021/10/04 00:26:19;;;;;;;0.25;0.25;;;17.60;61.90;;;;;;5045155;28;20037;-65
2021/10/04 00:28:44;;;;;;;0.40;0.30;;;17.60;61.90;;;;;;5046254;28;20036;-65
2021/10/04 00:31:10;;;;;;;0.40;0.40;;;17.60;62.00;;;;;;5050216;28;20033;-65
2021/10/04 00:33:36;;;;;;;0.20;0.20;;;17.60;62.00;;;;;;5052390;28;20051;-64
2021/10/04 00:36:02;;;;;;;0.40;0.30;;;17.60;62.20;;;;;;5054129;28;20500;-65
2021/10/04 00:38:28;;;;;;;1.73;0.28;;;17.60;62.30;;;;;;5053218;28;20037;-65
2021/10/04 00:40:54;;;;;;;0.30;0.30;;;17.50;62.30;;;;;;5053517;28;20036;-66
2021/10/04 00:43:21;;;;;;;0.30;0.30;;;17.50;62.20;;;;;;5051832;28;20451;-65
2021/10/04 00:45:47;;;;;;;0.30;0.20;;;17.50;62.00;;;;;;5054858;28;20025;-66
2021/10/04 00:48:13;;;;;;;0.20;0.20;;;17.50;62.40;;;;;;5053899;28;20040;-66
2021/10/04 00:50:39;;;;;;;0.30;0.30;;;17.40;62.00;;;;;;5050488;28;20047;-65
2021/10/04 00:53:05;;;;;;;0.40;0.30;;;17.40;62.00;;;;;;5048671;28;20033;-65
2021/10/04 00:55:30;;;;;;;0.40;0.20;;;17.40;61.90;;;;;;5050992;28;20610;-65
2021/10/04 00:57:58;;;;;;;0.25;0.25;;;17.30;61.80;;;;;;5053244;28;20500;-65
2021/10/04 01:00:26;;;;;;;0.55;0.30;;;17.30;61.80;;;;;;5053098;28;20037;-65
2021/10/04 01:02:52;;;;;;;0.30;0.20;;;17.30;62.70;;;;;;5053352;28;20033;-65
2021/10/04 01:05:18;;;;;;;0.30;0.20;;;17.30;62.00;;;;;;5051229;28;20455;-65
2021/10/04 01:07:46;;;;;;;1.15;0.30;;;17.20;62.10;;;;;;5048156;28;20032;-66
2021/10/04 01:10:13;;;;;;;0.38;0.38;;;17.20;62.20;;;;;;5050865;28;20040;-66
2021/10/04 01:12:41;;;;;;;0.30;0.30;;;17.20;63.10;;;;;;5049879;28;20400;-66
2021/10/04 01:15:07;;;;;;;0.20;0.20;;;17.20;62.30;;;;;;5049916;28;20029;-66
2021/10/04 01:17:33;;;;;;;0.20;0.20;;;17.10;62.40;;;;;;5053841;28;20043;-65
2021/10/04 01:19:58;;;;;;;0.32;0.32;;;17.10;62.60;;;;;;5048335;28;20028;-65
2021/10/04 01:22:24;;;;;;;0.40;0.20;;;17.10;62.70;;;;;;5051467;28;20057;-65
2021/10/04 01:24:50;;;;;;;0.40;0.32;;;17.10;62.70;;;;;;5049171;28;20057;-66
2021/10/04 01:27:15;;;;;;;0.15;0.13;;;17.10;62.80;;;;;;5050545;28;20120;-66
2021/10/04 01:29:41;;;;;;;0.30;0.30;;;17.10;62.80;;;;;;5049867;28;20163;-65
2021/10/04 01:32:07;;;;;;;0.50;0.30;;;17.00;62.70;;;;;;5051868;28;20056;-66
2021/10/04 01:34:33;;;;;;;0.20;0.13;;;17.00;62.70;;;;;;5049179;28;20029;-65
2021/10/04 01:36:59;;;;;;;2.15;0.40;;;17.00;62.70;;;;;;5052627;28;20401;-65
2021/10/04 01:39:24;;;;;;;1.80;0.30;;;17.00;62.70;;;;;;5053330;28;20041;-65
2021/10/04 01:41:50;;;;;;;0.30;0.20;;;16.90;62.70;;;;;;5047700;28;20037;-65
2021/10/04 01:44:16;;;;;;;0.40;0.30;;;16.90;62.90;;;;;;5053389;28;20190;-66
2021/10/04 01:46:41;;;;;;;0.30;0.30;;;16.90;62.90;;;;;;5047225;28;20044;-65
2021/10/04 01:49:08;;;;;;;0.70;0.38;;;16.90;62.90;;;;;;5049932;28;20045;-65
2021/10/04 01:51:34;;;;;;;0.47;0.20;;;16.90;63.00;;;;;;5051249;28;20086;-66
2021/10/04 01:53:59;;;;;;;0.30;0.30;;;16.90;63.10;;;;;;5046962;28;20037;-65
2021/10/04 01:56:25;;;;;;;0.20;0.20;;;16.80;63.00;;;;;;5048508;28;20127;-65
2021/10/04 01:58:51;;;;;;;0.85;0.20;;;16.90;63.10;;;;;;5053740;28;20060;-65
2021/10/04 02:01:16;;;;;;;0.43;0.30;;;16.80;63.10;;;;;;5049893;28;20041;-65
2021/10/04 02:03:42;;;;;;;0.35;0.30;;;16.90;63.10;;;;;;5049269;28;20048;-65
2021/10/04 02:06:07;;;;;;;0.30;0.30;;;16.90;63.20;;;;;;5051368;28;20064;-66
2021/10/04 02:08:33;;;;;;;0.20;0.20;;;16.90;63.30;;;;;;5048981;28;20037;-64
2021/10/04 02:10:59;;;;;;;0.30;0.30;;;16.90;63.10;;;;;;5047110;28;20055;-65
2021/10/04 02:13:24;;;;;;;1.38;0.30;;;16.90;63.10;;;;;;5045877;28;20032;-66
2021/10/04 02:15:51;;;;;;;0.20;0.20;;;16.80;63.10;;;;;;5055253;28;20713;-67
2021/10/04 02:18:17;;;;;;;0.43;0.30;;;16.80;63.20;;;;;;5056748;28;20111;-63
2021/10/04 02:20:44;;;;;;;0.30;0.22;;;16.80;63.40;;;;;;5056251;28;20119;-65
2021/10/04 02:23:11;;;;;;;0.30;0.30;;;16.80;64.40;;;;;;5054963;28;20083;-67
2021/10/04 02:25:45;;;;;;;1.27;0.20;;;16.80;63.50;;;;;;5052572;28;20047;-67
2021/10/04 02:28:13;;;;;;;0.28;0.20;;;16.80;63.60;;;;;;5055378;28;20512;-67
2021/10/04 02:30:39;;;;;;;1.10;0.20;;;16.80;63.40;;;;;;5056004;28;20033;-67
2021/10/04 02:33:06;;;;;;;0.85;0.30;;;16.80;63.20;;;;;;5048298;28;20439;-67
2021/10/04 02:35:32;;;;;;;0.63;0.30;;;16.70;63.40;;;;;;5047798;28;20061;-66
2021/10/04 02:37:58;;;;;;;0.20;0.20;;;16.70;63.50;;;;;;5055214;28;20068;-68
2021/10/04 02:40:24;;;;;;;0.40;0.40;;;16.60;63.60;;;;;;5055676;28;20032;-68
2021/10/04 02:42:52;;;;;;;0.22;0.22;;;16.50;63.80;;;;;;5054856;28;20444;-68
2021/10/04 02:45:21;;;;;;;0.20;0.20;;;16.40;64.10;;;;;;5058549;28;20028;-67
2021/10/04 02:47:48;;;;;;;0.30;0.30;;;16.40;64.50;;;;;;5054763;28;20056;-67
2021/10/04 02:50:17;;;;;;;0.30;0.30;;;16.30;64.70;;;;;;5056327;28;20036;-67
2021/10/04 02:52:42;;;;;;;0.30;0.22;;;16.30;65.00;;;;;;5047543;28;20045;-67
2021/10/04 02:55:09;;;;;;;0.28;0.28;;;16.20;65.20;;;;;;5053221;28;20472;-67
2021/10/04 02:57:34;;;;;;;0.80;0.20;;;16.20;65.30;;;;;;5055678;28;20094;-67
2021/10/04 03:00:01;;;;;;;1.50;0.30;;;16.20;65.40;;;;;;5057812;28;20508;-67
2021/10/04 03:02:26;;;;;;;0.57;0.50;;;16.10;65.60;;;;;;5051536;28;20045;-67
2021/10/04 03:04:52;;;;;;;0.25;0.25;;;16.10;65.70;;;;;;5057414;28;20043;-68
2021/10/04 03:07:18;;;;;;;0.40;0.20;;;16.10;65.90;;;;;;5050813;28;20454;-68
2021/10/04 03:09:44;;;;;;;0.30;0.30;;;16.10;66.00;;;;;;5051404;28;20036;-67
2021/10/04 03:12:09;;;;;;;0.10;0.10;;;16.00;66.10;;;;;;5051431;28;20064;-67
2021/10/04 03:14:35;;;;;;;0.20;0.20;;;16.00;66.20;;;;;;5051192;28;20048;-67
2021/10/04 03:17:02;;;;;;;0.60;0.30;;;16.00;66.20;;;;;;5055867;28;20037;-67
2021/10/04 03:19:27;;;;;;;0.40;0.30;;;16.00;66.30;;;;;;5049160;28;20029;-68
2021/10/04 03:21:53;;;;;;;0.28;0.28;;;16.00;66.40;;;;;;5054913;28;20091;-67
2021/10/04 03:24:19;;;;;;;0.20;0.20;;;15.90;66.50;;;;;;5052567;28;20428;-68
2021/10/04 03:26:45;;;;;;;0.20;0.20;;;15.90;66.50;;;;;;5046818;28;20037;-67
2021/10/04 03:29:11;;;;;;;0.30;0.30;;;15.90;66.50;;;;;;5054730;28;20029;-67
2021/10/04 03:31:38;;;;;;;0.22;0.20;;;15.90;66.40;;;;;;5052855;28;20132;-67
2021/10/04 03:34:04;;;;;;;0.30;0.30;;;15.90;66.60;;;;;;5055861;28;20036;-67
2021/10/04 03:36:30;;;;;;;0.20;0.20;;;15.80;66.60;;;;;;5050477;28;20036;-68
2021/10/04 03:38:56;;;;;;;0.30;0.30;;;15.80;66.70;;;;;;5048071;28;20044;-67
2021/10/04 03:41:23;;;;;;;0.45;0.30;;;15.80;66.70;;;;;;5046691;28;20136;-66
2021/10/04 03:43:50;;;;;;;0.20;0.20;;;15.80;66.70;;;;;;5048643;28;20926;-67
2021/10/04 03:46:16;;;;;;;1.02;0.38;;;15.80;66.70;;;;;;5048773;28;20745;-68
2021/10/04 03:48:42;;;;;;;0.95;0.30;;;15.70;66.60;;;;;;5045562;28;20052;-67
2021/10/04 03:51:08;;;;;;;0.38;0.30;;;15.70;66.70;;;;;;5047349;28;20029;-66
2021/10/04 03:53:33;;;;;;;0.28;0.28;;;15.70;66.90;;;;;;5047661;28;20079;-67
2021/10/04 03:55:59;;;;;;;0.40;0.40;;;15.70;66.90;;;;;;5048096;28;20140;-67
2021/10/04 03:58:25;;;;;;;2.47;0.50;;;15.70;66.90;;;;;;5047919;28;20094;-67
2021/10/04 04:00:51;;;;;;;0.28;0.28;;;15.70;67.20;;;;;;5046764;28;20040;-67
2021/10/04 04:03:16;;;;;;;1.98;0.30;;;15.60;66.90;;;;;;5046631;28;20037;-67
2021/10/04 04:05:42;;;;;;;0.98;0.20;;;15.60;67.10;;;;;;5046241;28;20021;-67
2021/10/04 04:08:08;;;;;;;2.28;0.28;;;15.60;67.20;;;;;;5048249;28;20041;-67
2021/10/04 04:10:33;;;;;;;0.40;0.40;;;15.60;67.20;;;;;;5047607;28;20033;-67
2021/10/04 04:12:59;;;;;;;0.50;0.43;;;15.70;67.40;;;;;;5045379;28;20112;-67
2021/10/04 04:15:25;;;;;;;0.40;0.30;;;15.70;67.30;;;;;;5050276;28;20037;-68
2021/10/04 04:17:51;;;;;;;0.65;0.40;;;15.60;67.30;;;;;;5052470;28;20040;-67
2021/10/04 04:20:16;;;;;;;0.30;0.30;;;15.60;67.30;;;;;;5055344;28;20033;-67
2021/10/04 04:22:43;;;;;;;2.65;0.30;;;15.60;67.40;;;;;;5053806;28;20036;-67
2021/10/04 04:25:09;;;;;;;0.40;0.30;;;15.50;67.30;;;;;;5053440;28;20040;-67
2021/10/04 04:27:36;;;;;;;0.22;0.20;;;15.50;67.40;;;;;;5055050;28;20037;-67
2021/10/04 04:30:07;;;;;;;0.40;0.30;;;15.50;67.40;;;;;;5055784;28;20086;-67
2021/10/04 04:32:33;;;;;;;0.32;0.30;;;15.60;67.60;;;;;;5055321;28;20028;-67
2021/10/04 04:34:58;;;;;;;1.08;0.28;;;15.50;67.70;;;;;;5057494;28;20385;-67
2021/10/04 04:37:24;;;;;;;0.50;0.50;;;15.50;67.70;;;;;;5055096;28;20029;-67
2021/10/04 04:39:50;;;;;;;0.60;0.40;;;15.50;67.60;;;;;;5051589;28;20039;-66
2021/10/04 04:42:15;;;;;;;0.77;0.30;;;15.50;67.60;;;;;;5052830;28;20045;-66
2021/10/04 04:44:41;;;;;;;0.40;0.35;;;15.50;67.50;;;;;;5056242;28;20503;-68
2021/10/04 04:47:06;;;;;;;0.98;0.38;;;15.50;67.40;;;;;;5055382;28;20040;-68
2021/10/04 04:49:32;;;;;;;0.45;0.30;;;15.50;67.30;;;;;;5056147;28;20144;-68
2021/10/04 04:51:58;;;;;;;0.35;0.35;;;15.50;67.40;;;;;;5056276;28;20041;-67
2021/10/04 04:54:26;;;;;;;0.30;0.30;;;15.40;67.40;;;;;;5055666;28;20040;-67
2021/10/04 04:56:55;;;;;;;0.52;0.32;;;15.40;67.50;;;;;;5054987;28;20032;-67
2021/10/04 04:59:22;;;;;;;0.30;0.30;;;15.40;67.60;;;;;;5057115;28;20568;-68
2021/10/04 05:01:47;;;;;;;0.35;0.35;;;15.40;67.70;;;;;;5057436;28;20496;-67
2021/10/04 05:04:13;;;;;;;0.30;0.30;;;15.40;67.80;;;;;;5056232;28;20044;-68
2021/10/04 05:06:39;;;;;;;0.50;0.28;;;15.50;68.00;;;;;;5055476;28;20492;-67
2021/10/04 05:09:05;;;;;;;0.30;0.30;;;15.50;67.90;;;;;;5056897;28;20037;-67
2021/10/04 05:11:30;;;;;;;0.47;0.32;;;15.50;67.80;;;;;;5055495;28;20043;-68
2021/10/04 05:13:56;;;;;;;1.80;0.40;;;15.40;67.80;;;;;;5056735;28;20446;-68
2021/10/04 05:16:22;;;;;;;0.40;0.40;;;15.40;67.90;;;;;;5056434;28;20041;-68
2021/10/04 05:18:47;;;;;;;0.88;0.50;;;15.40;68.00;;;;;;5034041;28;20048;-68
2021/10/04 05:21:13;;;;;;;0.50;0.40;;;15.50;68.20;;;;;;5036007;28;20025;-67
2021/10/04 05:23:39;;;;;;;2.65;0.38;;;15.40;68.10;;;;;;5033629;28;20138;-68
2021/10/04 05:26:05;;;;;;;1.58;0.30;;;15.50;68.30;;;;;;5034918;28;20029;-67
2021/10/04 05:28:31;;;;;;;1.27;0.38;;;15.50;68.20;;;;;;5035092;28;20049;-68
2021/10/04 05:30:57;;;;;;;0.30;0.30;;;15.40;68.20;;;;;;5034803;28;20175;-68
2021/10/04 05:33:23;;;;;;;0.85;0.43;;;15.50;68.30;;;;;;5035744;28;20108;-68
2021/10/04 05:35:48;;;;;;;0.50;0.40;;;15.50;68.30;;;;;;5032672;28;20040;-67
2021/10/04 05:38:14;;;;;;;0.52;0.43;;;15.50;68.30;;;;;;5034489;28;20033;-68
2021/10/04 05:40:40;;;;;;;0.47;0.40;;;15.50;68.30;;;;;;5034489;28;20037;-68
2021/10/04 05:43:05;;;;;;;0.82;0.47;;;15.50;68.50;;;;;;5039092;28;20035;-68
2021/10/04 05:45:31;;;;;;;0.40;0.40;;;15.50;69.40;;;;;;5040103;28;20132;-67
2021/10/04 05:47:56;;;;;;;1.95;0.30;;;15.50;68.60;;;;;;5039010;28;20397;-68
2021/10/04 05:50:23;;;;;;;0.30;0.22;;;15.50;68.60;;;;;;5039406;28;20044;-67
2021/10/04 05:52:49;;;;;;;0.30;0.30;;;15.50;69.60;;;;;;5038343;28;20021;-67
2021/10/04 05:55:15;;;;;;;0.60;0.30;;;15.50;68.90;;;;;;5039844;28;20037;-67
2021/10/04 05:57:42;;;;;;;0.25;0.20;;;15.50;69.00;;;;;;5035115;28;20040;-68
2021/10/04 06:00:09;;;;;;;0.82;0.22;;;15.50;69.90;;;;;;5039187;28;20119;-68
2021/10/04 06:02:35;;;;;;;0.25;0.25;;;15.50;69.20;;;;;;5037487;28;20036;-68
2021/10/04 06:05:01;;;;;;;3.90;0.30;;;15.50;69.20;;;;;;5041024;28;20072;-67
2021/10/04 06:07:26;;;;;;;1.08;0.52;;;15.50;69.20;;;;;;5040244;28;20045;-67
2021/10/04 06:09:52;;;;;;;0.20;0.20;;;15.50;69.30;;;;;;5037926;28;20075;-68
2021/10/04 06:12:24;;;;;;;0.25;0.20;;;15.50;69.50;;;;;;5034206;28;20029;-68
2021/10/04 06:14:50;;;;;;;0.50;0.30;;;15.50;69.50;;;;;;5041834;28;20040;-68
2021/10/04 06:17:15;;;;;;;0.70;0.57;;;15.50;69.60;;;;;;5058005;28;20039;-68
2021/10/04 06:19:41;;;;;;;0.45;0.30;;;15.40;69.90;;;;;;5058043;28;20044;-67
2021/10/04 06:22:07;;;;;;;0.47;0.40;;;15.50;70.00;;;;;;5057893;28;20044;-65
2021/10/04 06:24:32;;;;;;;0.50;0.40;;;15.50;70.10;;;;;;5054100;28;20032;-67
2021/10/04 06:26:58;;;;;;;0.88;0.30;;;15.50;70.00;;;;;;5057136;28;20589;-67
2021/10/04 06:29:24;;;;;;;0.43;0.40;;;15.50;70.10;;;;;;5058237;28;20033;-67
2021/10/04 06:31:49;;;;;;;0.70;0.50;;;15.50;70.30;;;;;;5056531;28;20045;-67
2021/10/04 06:34:15;;;;;;;1.98;0.52;;;15.50;70.30;;;;;;5057582;28;20141;-68
2021/10/04 06:36:41;;;;;;;2.15;0.55;;;15.60;70.40;;;;;;5057702;28;20407;-67
2021/10/04 06:39:06;;;;;;;1.75;0.60;;;15.50;70.40;;;;;;5054193;28;20424;-68
2021/10/04 06:41:32;;;;;;;2.70;0.65;;;15.50;70.40;;;;;;5057534;28;20052;-67
2021/10/04 06:43:57;;;;;;;1.50;0.80;;;15.60;70.40;;;;;;5054494;28;20037;-67
2021/10/04 06:46:23;;;;;;;3.67;1.83;;;15.60;70.40;;;;;;5056378;28;20029;-67
2021/10/04 06:48:48;;;;;;;1.20;0.77;;;15.60;70.40;;;;;;5056057;28;20044;-68
2021/10/04 06:51:14;;;;;;;1.50;0.70;;;15.60;70.60;;;;;;5058179;28;20044;-67
2021/10/04 06:53:40;;;;;;;1.73;0.60;;;15.60;70.60;;;;;;5055600;28;20496;-67
2021/10/04 06:56:06;;;;;;;0.57;0.57;;;15.60;70.50;;;;;;5057697;28;20037;-68
2021/10/04 06:58:31;;;;;;;1.25;0.70;;;15.60;70.40;;;;;;5055545;28;20041;-68
2021/10/04 07:00:57;;;;;;;0.70;0.70;;;15.70;70.40;;;;;;5057564;28;20017;-68
2021/10/04 07:03:23;;;;;;;0.68;0.65;;;15.70;70.40;;;;;;5051670;28;20149;-67
2021/10/04 07:05:51;;;;;;;0.82;0.60;;;15.70;70.40;;;;;;5057206;28;21032;-67
2021/10/04 07:08:17;;;;;;;0.60;0.60;;;15.70;70.50;;;;;;5054696;28;20108;-67
2021/10/04 07:10:43;;;;;;;0.68;0.57;;;15.70;70.40;;;;;;5055365;28;20051;-68
2021/10/04 07:13:09;;;;;;;0.50;0.50;;;15.70;70.50;;;;;;5059082;28;20725;-68
2021/10/04 07:15:34;;;;;;;1.77;0.57;;;15.70;70.50;;;;;;5053593;28;20404;-68
2021/10/04 07:18:00;;;;;;;0.40;0.40;;;15.70;70.50;;;;;;5055767;28;20062;-67
2021/10/04 07:20:26;;;;;;;1.00;0.50;;;15.70;70.60;;;;;;5054483;28;20488;-67
2021/10/04 07:22:51;;;;;;;8.45;0.90;;;15.70;70.60;;;;;;5051491;28;20331;-67
2021/10/04 07:25:17;;;;;;;0.70;0.68;;;15.60;70.70;;;;;;5056727;28;20695;-67
2021/10/04 07:27:43;;;;;;;0.60;0.60;;;15.60;70.90;;;;;;5058259;28;20573;-67
2021/10/04 07:30:09;;;;;;;0.57;0.57;;;15.60;71.00;;;;;;5051368;28;20520;-67
2021/10/04 07:32:35;;;;;;;0.60;0.60;;;15.60;71.30;;;;;;5055646;28;20170;-67
2021/10/04 07:35:01;;;;;;;1.25;0.75;;;15.50;71.40;;;;;;5057315;28;20492;-67
2021/10/04 07:37:27;;;;;;;0.82;0.82;;;15.50;71.80;;;;;;5058276;28;20037;-67
2021/10/04 07:39:54;;;;;;;0.70;0.70;;;15.60;72.10;;;;;;5052441;28;20546;-67
2021/10/04 07:42:20;;;;;;;2.00;0.90;;;15.60;72.20;;;;;;5056559;28;20412;-67
2021/10/04 07:44:45;;;;;;;2.47;0.80;;;15.60;72.60;;;;;;5053791;28;20041;-67
2021/10/04 07:47:11;;;;;;;1.60;0.70;;;15.60;72.70;;;;;;5054441;28;20555;-67
2021/10/04 07:49:37;;;;;;;0.80;0.80;;;15.60;72.50;;;;;;5057137;28;20479;-67
2021/10/04 07:52:03;;;;;;;1.08;0.65;;;15.50;72.60;;;;;;5052985;28;20029;-66
2021/10/04 07:54:29;;;;;;;1.85;0.70;;;15.50;72.80;;;;;;5056013;28;20131;-67
2021/10/04 07:56:54;;;;;;;1.15;1.00;;;15.50;73.00;;;;;;5054412;28;20144;-67
2021/10/04 07:59:20;;;;;;;1.17;1.08;;;15.50;73.40;;;;;;5054306;28;20516;-67
2021/10/04 08:01:46;;;;;;;1.48;0.73;;;15.50;73.40;;;;;;5052310;28;20538;-67
2021/10/04 08:04:12;;;;;;;1.20;1.10;;;15.60;73.40;;;;;;5054594;28;20776;-67
2021/10/04 08:06:37;;;;;;;2.17;1.00;;;15.50;73.40;;;;;;5052347;28;20033;-67
2021/10/04 08:09:03;;;;;;;2.70;1.40;;;15.50;73.50;;;;;;5053260;28;20037;-67
2021/10/04 08:11:29;;;;;;;1.23;1.13;;;15.50;73.80;;;;;;5054421;28;20044;-67
2021/10/04 08:13:55;;;;;;;1.10;1.00;;;15.50;73.80;;;;;;5054724;28;20076;-67
2021/10/04 08:16:22;;;;;;;1.20;1.10;;;15.40;73.80;;;;;;5056318;28;20115;-67
2021/10/04 08:18:51;;;;;;;1.10;1.10;;;15.40;74.10;;;;;;5056014;28;20251;-67
2021/10/04 08:21:22;;;;;;;1.63;1.20;;;15.30;74.40;;;;;;5055131;28;20048;-67
2021/10/04 08:23:49;;;;;;;0.98;0.98;;;15.20;74.70;;;;;;5051110;28;20052;-67
2021/10/04 08:26:15;;;;;;;1.73;1.00;;;15.20;74.90;;;;;;5051249;28;20646;-66
2021/10/04 08:28:41;;;;;;;0.98;0.95;;;15.20;75.20;;;;;;5056288;28;20037;-66
2021/10/04 08:31:07;;;;;;;1.92;1.25;;;15.10;75.40;;;;;;5051366;28;20032;-67
2021/10/04 08:33:34;;;;;;;1.80;0.98;;;15.00;75.80;;;;;;5053686;28;20037;-67
2021/10/04 08:36:01;;;;;;;4.78;1.10;;;15.00;76.10;;;;;;5054633;28;20024;-67
2021/10/04 08:38:27;;;;;;;13.10;1.70;;;15.00;76.30;;;;;;5055001;28;20037;-67
2021/10/04 08:40:53;;;;;;;3.60;1.83;;;15.00;76.80;;;;;;5053559;28;20052;-67
2021/10/04 08:43:19;;;;;;;3.33;1.45;;;15.00;77.00;;;;;;5055084;28;20125;-66
2021/10/04 08:45:45;;;;;;;3.60;1.70;;;14.90;76.80;;;;;;5054580;28;20021;-67
2021/10/04 08:48:11;;;;;;;1.42;1.30;;;15.00;76.80;;;;;;5053364;28;20507;-67
2021/10/04 08:50:37;;;;;;;1.50;1.40;;;14.90;77.10;;;;;;5055022;28;20120;-67
2021/10/04 08:53:03;;;;;;;2.70;1.35;;;14.90;77.20;;;;;;5053533;28;20103;-67
2021/10/04 08:55:30;;;;;;;1.50;1.40;;;14.90;77.20;;;;;;5055498;28;20051;-67
2021/10/04 08:57:56;;;;;;;1.65;1.20;;;14.90;77.40;;;;;;5056631;28;20030;-67
2021/10/04 09:00:22;;;;;;;1.15;1.10;;;14.80;77.30;;;;;;5055441;28;20056;-65
2021/10/04 09:02:48;;;;;;;0.82;0.82;;;14.80;78.30;;;;;;5049635;28;20040;-67
2021/10/04 09:05:23;;;;;;;0.93;0.93;;;14.80;77.60;;;;;;5070157;28;20028;-67
2021/10/04 09:07:54;;;;;;;1.92;1.15;;;14.80;78.10;;;;;;5053687;28;20029;-67
2021/10/04 09:10:24;;;;;;;1.00;1.00;;;14.80;78.60;;;;;;5053355;28;20511;-66
2021/10/04 09:12:53;;;;;;;1.15;1.05;;;14.80;78.20;;;;;;5034787;28;20544;-66
2021/10/04 09:15:23;;;;;;;1.33;1.00;;;14.80;78.80;;;;;;5034779;28;20116;-66
2021/10/04 09:17:49;;;;;;;1.30;1.20;;;14.70;78.60;;;;;;5031403;28;20094;-67
2021/10/04 09:20:16;;;;;;;1.20;1.13;;;14.80;78.90;;;;;;5034856;28;20045;-65
2021/10/04 09:22:42;;;;;;;0.90;0.90;;;14.80;79.00;;;;;;5030066;28;20041;-67
2021/10/04 09:25:08;;;;;;;2.05;0.90;;;14.80;79.00;;;;;;5028491;28;20500;-67
2021/10/04 09:27:36;;;;;;;0.90;0.50;;;14.80;79.10;;;;;;5035245;28;20094;-67
2021/10/04 09:30:12;;;;;;;0.43;0.43;;;14.80;79.20;;;;;;5035689;28;20033;-67
2021/10/04 09:32:39;;;;;;;0.40;0.40;;;14.80;79.00;;;;;;5031862;28;20033;-67
2021/10/04 09:35:12;;;;;;;0.40;0.40;;;14.80;78.80;;;;;;5033503;28;20064;-67
2021/10/04 09:37:38;;;;;;;0.40;0.40;;;14.70;79.30;;;;;;5032917;28;20034;-67
2021/10/04 09:40:05;;;;;;;0.30;0.30;;;14.70;78.70;;;;;;5031942;28;20421;-67
2021/10/04 09:42:39;;;;;;;0.55;0.20;;;14.70;79.10;;;;;;5031992;28;20053;-66
2021/10/04 09:45:06;;;;;;;0.30;0.30;;;14.70;80.00;;;;;;5036911;28;20068;-67
2021/10/04 09:47:39;;;;;;;0.10;0.10;;;14.60;79.40;;;;;;5034822;28;20308;-66
2021/10/04 09:50:08;;;;;;;0.20;0.20;;;14.60;80.00;;;;;;5033769;28;20045;-66
2021/10/04 09:52:41;;;;;;;0.20;0.20;;;14.70;79.80;;;;;;5027484;28;20042;-66
2021/10/04 09:55:18;;;;;;;0.20;0.20;;;14.70;79.80;;;;;;5032154;28;20128;-66
2021/10/04 09:57:53;;;;;;;0.38;0.38;;;14.70;80.40;;;;;;5035214;28;20434;-67
2021/10/04 10:00:19;;;;;;;1.10;0.40;;;14.70;80.10;;;;;;5036289;28;20092;-67
2021/10/04 10:02:46;;;;;;;0.80;0.60;;;14.70;79.70;;;;;;5032204;28;20041;-66
2021/10/04 10:05:11;;;;;;;0.70;0.70;;;14.70;80.00;;;;;;5031850;28;20051;-66
2021/10/04 10:07:37;;;;;;;0.60;0.60;;;14.70;80.00;;;;;;5029708;28;20672;-66
2021/10/04 10:10:03;;;;;;;0.70;0.70;;;14.70;80.10;;;;;;5024976;28;20107;-67
2021/10/04 10:12:29;;;;;;;1.27;0.82;;;14.70;80.40;;;;;;5022039;28;20063;-66
2021/10/04 10:14:55;;;;;;;0.73;0.73;;;14.80;80.40;;;;;;5026612;28;20492;-67
2021/10/04 10:17:26;;;;;;;0.77;0.70;;;14.80;80.20;;;;;;5032382;28;20400;-67
2021/10/04 10:19:55;;;;;;;0.85;0.85;;;14.80;80.30;;;;;;5032237;28;20041;-67
2021/10/04 10:22:21;;;;;;;1.00;1.00;;;14.90;80.30;;;;;;5033261;28;20045;-67
2021/10/04 10:24:48;;;;;;;0.77;0.77;;;15.00;80.10;;;;;;5033552;28;20033;-66
2021/10/04 10:27:15;;;;;;;0.77;0.77;;;15.00;80.00;;;;;;5036718;28;20040;-66
2021/10/04 10:29:42;;;;;;;0.50;0.50;;;15.00;79.80;;;;;;5038708;28;20048;-66
2021/10/04 10:32:11;;;;;;;0.70;0.70;;;15.00;79.80;;;;;;5035630;28;20037;-66
2021/10/04 10:34:37;;;;;;;0.90;0.90;;;15.00;80.60;;;;;;5036288;28;20086;-66
2021/10/04 10:37:17;;;;;;;1.00;1.00;;;15.00;79.60;;;;;;5034614;28;20033;-67
2021/10/04 10:39:54;;;;;;;0.88;0.88;;;15.00;81.10;;;;;;5039604;28;20041;-67
2021/10/04 10:42:33;;;;;;;1.05;1.05;;;15.00;80.30;;;;;;5035280;28;20080;-66
2021/10/04 10:45:19;;;;;;;0.60;0.60;;;15.10;80.60;;;;;;5034512;28;20040;-64
2021/10/04 10:47:44;;;;;;;0.40;0.40;;;15.10;80.00;;;;;;5036781;28;20182;-66
2021/10/04 10:50:28;;;;;;;0.20;0.20;;;15.10;80.00;;;;;;5038640;28;20695;-67
2021/10/04 10:52:57;;;;;;;0.28;0.00;;;15.10;80.60;;;;;;5037453;28;20041;-66
2021/10/04 10:55:22;;;;;;;0.00;0.00;;;15.20;79.40;;;;;;5059548;28;20057;-66
2021/10/04 10:57:51;;;;;;;0.00;0.00;;;15.20;79.10;;;;;;5056472;28;20454;-66
2021/10/04 11:00:23;;;;;;;0.00;0.00;;;15.20;79.00;;;;;;5057829;28;20040;-67
2021/10/04 11:02:56;;;;;;;0.10;0.10;;;15.20;78.80;;;;;;5052430;28;20032;-66
2021/10/04 11:05:37;;;;;;;0.00;0.00;;;15.20;78.70;;;;;;5059008;28;20063;-66
2021/10/04 11:08:13;;;;;;;0.57;0.00;;;15.20;79.30;;;;;;5054699;28;20037;-66
2021/10/04 11:10:48;;;;;;;0.25;0.00;;;15.20;79.20;;;;;;5056166;28;20045;-67
2021/10/04 11:13:33;;;;;;;0.00;0.00;;;15.20;79.30;;;;;;5054574;28;20056;-67
2021/10/04 11:16:05;;;;;;;0.00;0.00;;;15.20;79.40;;;;;;5052874;28;20053;-66
2021/10/04 11:18:44;;;;;;;0.00;0.00;;;15.20;78.70;;;;;;5046163;28;20068;-67
2021/10/04 11:21:14;;;;;;;0.47;0.00;;;15.20;79.10;;;;;;5053522;28;20029;-66
2021/10/04 11:23:42;;;;;;;0.20;0.10;;;15.30;79.20;;;;;;5047428;28;20117;-66
2021/10/04 11:26:12;;;;;;;0.10;0.10;;;15.30;78.90;;;;;;5047176;28;20082;-67
2021/10/04 11:28:40;;;;;;;0.50;0.50;;;15.30;78.40;;;;;;5048664;28;20036;-66
2021/10/04 11:31:17;;;;;;;0.35;0.20;;;15.30;78.40;;;;;;5060657;28;20033;-67
2021/10/04 11:33:52;;;;;;;0.03;0.03;;;15.20;78.40;;;;;;5051348;28;20126;-67
2021/10/04 11:36:23;;;;;;;0.90;0.13;;;15.10;78.40;;;;;;5048815;28;20091;-67
2021/10/04 11:39:00;;;;;;;0.68;0.20;;;15.10;78.20;;;;;;5034659;28;20041;-67
2021/10/04 11:41:46;;;;;;;0.35;0.20;;;15.10;78.90;;;;;;5037683;28;20061;-66
2021/10/04 11:44:19;;;;;;;0.77;0.40;;;15.10;78.90;;;;;;5035440;28;20052;-66
2021/10/04 11:46:49;;;;;;;0.47;0.45;;;15.00;78.90;;;;;;5035827;28;20069;-67
2021/10/04 11:49:23;;;;;;;0.63;0.63;;;15.10;79.40;;;;;;5037915;28;20124;-66
2021/10/04 11:51:52;;;;;;;0.50;0.50;;;15.10;80.00;;;;;;5028434;28;20389;-66
2021/10/04 11:54:52;;;;;;;0.50;0.50;;;15.10;79.60;;;;;;5019304;28;20631;-67
2021/10/04 11:57:20;;;;;;;0.63;0.63;;;15.20;80.50;;;;;;5036947;28;20061;-66
2021/10/04 11:59:50;;;;;;;0.40;0.40;;;15.20;79.70;;;;;;5037955;28;20045;-66
2021/10/04 12:02:30;;;;;;;0.55;0.55;;;15.30;79.70;;;;;;5037095;28;20040;-67
2021/10/04 12:05:10;;;;;;;0.55;0.50;;;15.30;79.60;;;;;;5037948;28;20037;-66
2021/10/04 12:07:38;;;;;;;0.70;0.70;;;15.40;80.20;;;;;;5037126;28;20049;-66
2021/10/04 12:10:05;;;;;;;0.60;0.60;;;15.40;79.80;;;;;;5036232;28;20041;-67
2021/10/04 12:12:36;;;;;;;0.90;0.70;;;15.50;79.70;;;;;;5029413;28;20108;-66
2021/10/04 12:15:04;;;;;;;0.60;0.60;;;15.60;80.00;;;;;;5034894;28;20116;-66
2021/10/04 12:17:35;;;;;;;4.35;1.13;;;15.70;79.60;;;;;;5034749;28;20353;-66
2021/10/04 12:20:01;;;;;;;2.25;0.70;;;15.80;79.40;;;;;;5034019;28;20034;-67
2021/10/04 12:22:35;;;;;;;0.90;0.80;;;15.80;79.60;;;;;;5030264;28;20033;-66
2021/10/04 12:25:01;;;;;;;0.90;0.85;;;15.90;78.90;;;;;;5037172;28;20534;-67
2021/10/04 12:27:27;;;;;;;0.93;0.90;;;15.90;78.40;;;;;;5034470;28;20268;-67
2021/10/04 12:30:01;;;;;;;1.65;0.90;;;16.00;78.40;;;;;;5035944;28;20620;-66
2021/10/04 12:32:46;;;;;;;0.70;0.70;;;16.00;78.20;;;;;;5033881;28;20049;-66
2021/10/04 12:35:19;;;;;;;1.10;0.85;;;16.00;78.10;;;;;;5035598;28;20112;-66
2021/10/04 12:37:57;;;;;;;1.00;0.80;;;16.10;78.00;;;;;;5026638;28;20041;-66
2021/10/04 12:40:27;;;;;;;0.70;0.70;;;16.10;78.70;;;;;;5036114;28;20120;-67
2021/10/04 12:43:06;;;;;;;1.30;0.70;;;16.10;77.80;;;;;;5035631;28;20052;-67
2021/10/04 12:45:35;;;;;;;0.98;0.60;;;16.10;77.50;;;;;;5035432;28;20029;-67
2021/10/04 12:48:12;;;;;;;0.52;0.52;;;16.10;77.70;;;;;;5033724;28;20033;-67
2021/10/04 12:50:39;;;;;;;0.50;0.47;;;16.10;77.70;;;;;;5035434;28;20041;-67